createdAt,value
2022-11-17T06:05:32.740Z,70.87
2022-11-17T06:10:53.898Z,70.89
2022-11-17T06:16:20.702Z,71.08
2022-11-17T06:22:09.772Z,71.03
2022-11-17T06:27:22.918Z,70.58
2022-11-17T06:32:45.468Z,70.92
2022-11-17T06:38:07.072Z,70.69
2022-11-17T06:43:28.194Z,71.43
2022-11-17T06:48:49.379Z,70.69
2022-11-17T06:54:12.340Z,71.40
2022-11-17T06:59:33.732Z,71.68
2022-11-17T07:04:54.443Z,71.04
2022-11-17T07:10:15.164Z,70.99
2022-11-17T07:15:35.931Z,70.68
2022-11-17T07:21:02.205Z,70.80
2022-11-17T07:26:23.137Z,70.51
2022-11-17T07:31:43.882Z,70.14
2022-11-17T07:37:04.688Z,70.61
2022-11-17T07:42:25.408Z,71.27
2022-11-17T07:47:54.229Z,70.79
2022-11-17T07:53:15.669Z,70.30
2022-11-17T07:58:38.130Z,70.64
2022-11-17T08:03:59.645Z,70.99
2022-11-17T08:09:20.546Z,71.06
2022-11-17T08:14:41.401Z,70.59
2022-11-17T08:20:03.721Z,70.96
2022-11-17T08:25:26.940Z,70.99
2022-11-17T08:30:48.294Z,70.37
2022-11-17T08:36:10.219Z,70.15
2022-11-17T08:41:31.800Z,71.08
2022-11-17T08:46:53.105Z,70.70
2022-11-17T08:52:13.883Z,70.63
2022-11-17T08:57:35.029Z,70.00
2022-11-17T09:02:55.791Z,70.80
2022-11-17T09:08:44.005Z,70.48
2022-11-17T09:13:57.930Z,70.54
2022-11-17T09:19:19.553Z,70.05
2022-11-17T09:24:40.760Z,70.16
2022-11-17T09:30:01.749Z,69.75
2022-11-17T09:35:22.808Z,70.51
2022-11-17T09:40:43.983Z,70.21
2022-11-17T09:46:13.623Z,69.98
2022-11-17T09:51:37.577Z,69.93
2022-11-17T09:56:59.364Z,69.78
2022-11-17T10:02:20.435Z,70.22
2022-11-17T10:07:48.165Z,69.46
2022-11-17T10:13:32.783Z,69.27
2022-11-17T10:18:53.892Z,69.66
2022-11-17T10:24:35.363Z,69.33
2022-11-17T10:30:00.235Z,69.48
2022-11-17T10:35:23.038Z,69.61
2022-11-17T10:40:44.030Z,69.91
2022-11-17T10:46:16.604Z,69.32
2022-11-17T10:51:37.792Z,69.28
2022-11-17T10:57:01.358Z,69.47
2022-11-17T11:02:35.420Z,69.11
2022-11-17T11:08:18.189Z,69.18
2022-11-17T11:13:52.193Z,68.75
2022-11-17T11:19:15.648Z,68.42
2022-11-17T11:24:53.916Z,69.52
2022-11-17T11:30:19.479Z,69.40
2022-11-17T11:36:05.049Z,68.86
2022-11-17T11:41:31.756Z,69.09
2022-11-17T11:46:56.934Z,68.62
2022-11-17T11:52:21.715Z,68.85
2022-11-17T11:57:53.363Z,69.28
2022-11-17T12:03:25.406Z,68.03
2022-11-17T12:08:59.355Z,68.43
2022-11-17T12:14:24.220Z,68.49
2022-11-17T12:19:55.493Z,67.76
2022-11-17T12:25:46.835Z,67.66
2022-11-17T12:31:43.203Z,68.05
2022-11-17T12:37:15.268Z,68.46
2022-11-17T12:42:37.001Z,67.70
2022-11-17T12:48:26.495Z,68.45
2022-11-17T12:53:52.293Z,67.60
2022-11-17T12:59:43.485Z,67.70
2022-11-17T13:05:21.891Z,68.44
2022-11-17T13:10:43.031Z,67.67
2022-11-17T13:16:04.790Z,67.55
2022-11-17T13:21:25.621Z,67.82
2022-11-17T13:26:59.267Z,67.75
2022-11-17T13:32:24.012Z,67.47
2022-11-17T13:37:45.139Z,68.03
2022-11-17T13:43:11.015Z,68.30
2022-11-17T13:48:41.582Z,68.16
2022-11-17T13:54:13.695Z,67.66
2022-11-17T13:59:37.915Z,67.53
2022-11-17T14:05:10.915Z,68.47
2022-11-17T14:10:36.206Z,68.48
2022-11-17T14:15:59.768Z,68.40
2022-11-17T14:21:20.703Z,67.69
2022-11-17T14:26:44.747Z,67.55
2022-11-17T14:32:05.623Z,67.78
2022-11-17T14:37:29.223Z,67.53
2022-11-17T14:42:50.252Z,67.66
2022-11-17T14:48:16.158Z,68.84
2022-11-17T14:53:42.023Z,68.33
2022-11-17T14:59:03.344Z,68.16
2022-11-17T15:10:06.446Z,68.71
2022-11-17T15:15:28.304Z,68.01
2022-11-17T15:20:59.704Z,68.65
2022-11-17T15:26:23.794Z,68.71
2022-11-17T15:31:44.804Z,68.37
2022-11-17T15:37:05.862Z,68.54
2022-11-17T15:42:26.677Z,68.04
2022-11-17T15:47:47.557Z,67.99
2022-11-17T15:53:08.423Z,68.59
2022-11-17T15:58:29.384Z,68.97
2022-11-17T16:03:51.041Z,68.31
2022-11-17T16:09:13.132Z,68.53
2022-11-17T16:14:34.177Z,68.77
2022-11-17T16:19:55.228Z,68.23
2022-11-17T16:25:16.285Z,68.39
2022-11-17T16:30:37.432Z,68.03
2022-11-17T16:36:04.916Z,68.63
2022-11-17T16:41:37.209Z,68.78
2022-11-17T16:46:58.293Z,68.56
2022-11-17T16:52:19.472Z,68.11
2022-11-17T16:57:40.463Z,68.14
2022-11-17T17:03:02.153Z,68.49
2022-11-17T17:08:23.224Z,68.33
2022-11-17T17:13:43.925Z,68.78
2022-11-17T17:19:07.108Z,68.73
2022-11-17T17:24:28.390Z,68.51
2022-11-17T17:29:49.375Z,68.33
2022-11-17T17:35:10.002Z,67.94
2022-11-17T17:40:30.854Z,68.69
2022-11-17T17:45:53.803Z,68.42
2022-11-17T17:51:20.376Z,68.58
2022-11-17T17:56:41.255Z,68.83
2022-11-17T18:02:02.566Z,68.22
2022-11-17T18:07:23.146Z,68.59
2022-11-17T18:12:44.023Z,68.36
2022-11-17T18:18:04.680Z,68.31
2022-11-17T18:23:28.875Z,68.70
2022-11-17T18:28:52.773Z,68.19
2022-11-17T18:34:20.646Z,68.15
2022-11-17T18:39:41.573Z,68.42
2022-11-17T18:45:02.482Z,69.08
2022-11-17T18:50:23.280Z,68.69
2022-11-17T18:55:44.074Z,68.33
2022-11-17T19:01:16.369Z,68.17
2022-11-17T19:06:37.431Z,67.81
2022-11-17T19:11:58.282Z,68.30
2022-11-17T19:17:19.271Z,68.24
2022-11-17T19:22:39.948Z,68.35
2022-11-17T19:28:00.619Z,68.02
2022-11-17T19:33:21.331Z,67.93
2022-11-17T19:38:43.171Z,68.13
2022-11-17T19:44:06.853Z,68.04
2022-11-17T19:49:27.568Z,67.95
2022-11-17T19:54:48.277Z,68.28
2022-11-17T20:00:09.999Z,68.15
2022-11-17T20:05:50.644Z,67.64
2022-11-17T20:11:20.496Z,67.79
2022-11-17T20:16:41.417Z,67.62
2022-11-17T20:22:02.243Z,67.75
2022-11-17T20:27:22.922Z,68.06
2022-11-17T20:32:43.593Z,68.02
2022-11-17T20:38:04.535Z,67.91
2022-11-17T20:43:26.621Z,67.59
2022-11-17T20:48:48.266Z,68.03
2022-11-17T20:54:09.291Z,67.88
2022-11-17T20:59:30.006Z,67.91
2022-11-17T21:04:50.761Z,68.15
2022-11-17T21:10:11.540Z,67.88
2022-11-17T21:15:32.348Z,67.78
2022-11-17T21:20:55.992Z,67.92
2022-11-17T21:26:17.120Z,67.90
2022-11-17T21:31:38.268Z,67.97
2022-11-17T21:36:59.066Z,68.18
2022-11-17T21:42:19.949Z,67.87
2022-11-17T21:47:40.828Z,68.01
2022-11-17T21:53:01.496Z,68.05
2022-11-17T21:58:22.644Z,67.89
2022-11-17T22:03:43.734Z,67.88
2022-11-17T22:09:04.772Z,67.85
2022-11-17T22:14:25.800Z,68.00
2022-11-17T22:19:46.791Z,68.09
2022-11-17T22:25:37.429Z,67.92
2022-11-17T22:30:51.382Z,67.96
2022-11-17T22:36:13.863Z,67.84
2022-11-17T22:41:35.022Z,68.03
2022-11-17T22:46:55.954Z,68.01
